sensor_id;sensor_type;location;lat;lon;timestamp;P1;durP1;ratioP1;P2;durP2;ratioP2
57335;SDS011;43171;50.994;18.204;2023-09-19T00:03:40;13.60;;;11.20;;
57335;SDS011;43171;50.994;18.204;2023-09-19T00:13:28;12.70;;;10.90;;
57335;SDS011;43171;50.994;18.204;2023-09-19T00:23:16;17.70;;;11.20;;
57335;SDS011;43171;50.994;18.204;2023-09-19T00:30:33;18.00;;;15.50;;
57335;SDS011;43171;50.994;18.204;2023-09-19T00:40:18;15.10;;;11.60;;
57335;SDS011;43171;50.994;18.204;2023-09-19T00:50:09;20.00;;;12.00;;
57335;SDS011;43171;50.994;18.204;2023-09-19T00:59:58;12.50;;;7.40;;
57335;SDS011;43171;50.994;18.204;2023-09-19T01:09:48;16.00;;;13.90;;
57335;SDS011;43171;50.994;18.204;2023-09-19T01:19:53;9.80;;;8.80;;
57335;SDS011;43171;50.994;18.204;2023-09-19T01:30:35;15.40;;;11.20;;
57335;SDS011;43171;50.994;18.204;2023-09-19T01:40:25;12.80;;;9.30;;
57335;SDS011;43171;50.994;18.204;2023-09-19T01:51:02;17.80;;;13.20;;
57335;SDS011;43171;50.994;18.204;2023-09-19T02:01:02;18.60;;;13.00;;
57335;SDS011;43171;50.994;18.204;2023-09-19T02:10:45;15.80;;;11.10;;
57335;SDS011;43171;50.994;18.204;2023-09-19T02:20:37;15.30;;;11.30;;
57335;SDS011;43171;50.994;18.204;2023-09-19T02:30:20;18.10;;;13.30;;
57335;SDS011;43171;50.994;18.204;2023-09-19T02:40:07;18.40;;;12.50;;
57335;SDS011;43171;50.994;18.204;2023-09-19T02:50:05;13.70;;;12.20;;
57335;SDS011;43171;50.994;18.204;2023-09-19T02:59:49;14.70;;;11.10;;
57335;SDS011;43171;50.994;18.204;2023-09-19T03:09:32;17.60;;;12.90;;
57335;SDS011;43171;50.994;18.204;2023-09-19T03:19:17;24.10;;;17.00;;
57335;SDS011;43171;50.994;18.204;2023-09-19T03:28:59;17.50;;;12.80;;
57335;SDS011;43171;50.994;18.204;2023-09-19T03:38:41;15.80;;;13.30;;
57335;SDS011;43171;50.994;18.204;2023-09-19T03:48:26;14.30;;;10.90;;
57335;SDS011;43171;50.994;18.204;2023-09-19T03:58:11;11.60;;;10.00;;
57335;SDS011;43171;50.994;18.204;2023-09-19T04:07:58;7.80;;;7.00;;
57335;SDS011;43171;50.994;18.204;2023-09-19T04:17:44;9.00;;;6.70;;
57335;SDS011;43171;50.994;18.204;2023-09-19T04:27:32;5.20;;;2.60;;
57335;SDS011;43171;50.994;18.204;2023-09-19T04:37:19;3.50;;;3.20;;
57335;SDS011;43171;50.994;18.204;2023-09-19T04:54:22;5.50;;;3.80;;
57335;SDS011;43171;50.994;18.204;2023-09-19T05:04:06;6.60;;;3.30;;
57335;SDS011;43171;50.994;18.204;2023-09-19T05:13:51;5.60;;;3.90;;
57335;SDS011;43171;50.994;18.204;2023-09-19T05:23:34;4.20;;;2.80;;
57335;SDS011;43171;50.994;18.204;2023-09-19T05:33:18;9.50;;;3.70;;
57335;SDS011;43171;50.994;18.204;2023-09-19T05:43:07;3.60;;;3.30;;
57335;SDS011;43171;50.994;18.204;2023-09-19T05:52:59;7.70;;;2.60;;
57335;SDS011;43171;50.994;18.204;2023-09-19T06:02:43;3.30;;;2.30;;
57335;SDS011;43171;50.994;18.204;2023-09-19T06:12:32;5.40;;;1.80;;
57335;SDS011;43171;50.994;18.204;2023-09-19T06:22:22;2.30;;;2.10;;
57335;SDS011;43171;50.994;18.204;2023-09-19T06:32:08;2.60;;;2.10;;
57335;SDS011;43171;50.994;18.204;2023-09-19T06:41:56;5.60;;;1.40;;
57335;SDS011;43171;50.994;18.204;2023-09-19T06:51:42;1.60;;;1.30;;
57335;SDS011;43171;50.994;18.204;2023-09-19T07:01:28;3.10;;;1.80;;
57335;SDS011;43171;50.994;18.204;2023-09-19T07:11:11;1.20;;;1.10;;
57335;SDS011;43171;50.994;18.204;2023-09-19T07:20:58;1.70;;;1.30;;
57335;SDS011;43171;50.994;18.204;2023-09-19T07:30:52;1.10;;;1.00;;
57335;SDS011;43171;50.994;18.204;2023-09-19T07:40:37;2.20;;;2.00;;
57335;SDS011;43171;50.994;18.204;2023-09-19T07:50:22;6.30;;;1.80;;
57335;SDS011;43171;50.994;18.204;2023-09-19T08:00:07;6.80;;;1.10;;
57335;SDS011;43171;50.994;18.204;2023-09-19T08:09:57;3.30;;;2.00;;
57335;SDS011;43171;50.994;18.204;2023-09-19T08:19:41;1.70;;;1.30;;
57335;SDS011;43171;50.994;18.204;2023-09-19T08:29:29;2.20;;;1.30;;
57335;SDS011;43171;50.994;18.204;2023-09-19T08:39:15;1.70;;;1.60;;
57335;SDS011;43171;50.994;18.204;2023-09-19T08:59:05;5.30;;;1.80;;
57335;SDS011;43171;50.994;18.204;2023-09-19T09:08:55;3.80;;;2.20;;
57335;SDS011;43171;50.994;18.204;2023-09-19T09:18:44;2.20;;;1.50;;
57335;SDS011;43171;50.994;18.204;2023-09-19T09:28:29;2.10;;;1.90;;
57335;SDS011;43171;50.994;18.204;2023-09-19T09:38:18;5.50;;;2.40;;
57335;SDS011;43171;50.994;18.204;2023-09-19T09:49:01;1.70;;;1.60;;
57335;SDS011;43171;50.994;18.204;2023-09-19T09:59:22;2.70;;;1.60;;
57335;SDS011;43171;50.994;18.204;2023-09-19T10:09:31;3.00;;;2.20;;
57335;SDS011;43171;50.994;18.204;2023-09-19T10:19:30;4.50;;;3.10;;
57335;SDS011;43171;50.994;18.204;2023-09-19T10:29:22;6.40;;;1.80;;
57335;SDS011;43171;50.994;18.204;2023-09-19T10:39:11;2.10;;;1.40;;
57335;SDS011;43171;50.994;18.204;2023-09-19T10:49:00;1.90;;;1.80;;
57335;SDS011;43171;50.994;18.204;2023-09-19T10:59:08;2.20;;;2.00;;
57335;SDS011;43171;50.994;18.204;2023-09-19T11:09:51;3.00;;;2.70;;
57335;SDS011;43171;50.994;18.204;2023-09-19T11:30:57;2.10;;;1.90;;
57335;SDS011;43171;50.994;18.204;2023-09-19T11:51:22;2.10;;;2.00;;
57335;SDS011;43171;50.994;18.204;2023-09-19T12:01:20;1.50;;;1.30;;
57335;SDS011;43171;50.994;18.204;2023-09-19T12:11:11;1.30;;;1.20;;
57335;SDS011;43171;50.994;18.204;2023-09-19T12:31:52;1.00;;;0.90;;
57335;SDS011;43171;50.994;18.204;2023-09-19T12:42:21;1.40;;;1.00;;
57335;SDS011;43171;50.994;18.204;2023-09-19T12:52:37;2.30;;;1.60;;
57335;SDS011;43171;50.994;18.204;2023-09-19T13:02:36;4.00;;;1.40;;
57335;SDS011;43171;50.994;18.204;2023-09-19T13:12:41;1.50;;;1.40;;
57335;SDS011;43171;50.994;18.204;2023-09-19T13:22:52;1.90;;;1.40;;
57335;SDS011;43171;50.994;18.204;2023-09-19T13:32:50;1.60;;;1.00;;
57335;SDS011;43171;50.994;18.204;2023-09-19T13:42:38;0.80;;;0.60;;
57335;SDS011;43171;50.994;18.204;2023-09-19T13:52:23;1.80;;;1.50;;
57335;SDS011;43171;50.994;18.204;2023-09-19T14:02:07;0.60;;;0.60;;
57335;SDS011;43171;50.994;18.204;2023-09-19T14:11:51;3.00;;;1.10;;
57335;SDS011;43171;50.994;18.204;2023-09-19T14:21:39;1.10;;;0.80;;
57335;SDS011;43171;50.994;18.204;2023-09-19T14:31:28;0.60;;;0.50;;
57335;SDS011;43171;50.994;18.204;2023-09-19T14:41:12;0.40;;;0.40;;
57335;SDS011;43171;50.994;18.204;2023-09-19T14:51:02;0.50;;;0.50;;
57335;SDS011;43171;50.994;18.204;2023-09-19T15:00:47;1.40;;;0.80;;
57335;SDS011;43171;50.994;18.204;2023-09-19T15:10:32;1.20;;;0.80;;
57335;SDS011;43171;50.994;18.204;2023-09-19T15:20:14;0.30;;;0.30;;
57335;SDS011;43171;50.994;18.204;2023-09-19T15:29:59;0.50;;;0.40;;
57335;SDS011;43171;50.994;18.204;2023-09-19T15:39:42;6.20;;;1.10;;
57335;SDS011;43171;50.994;18.204;2023-09-19T15:49:29;1.00;;;1.00;;
57335;SDS011;43171;50.994;18.204;2023-09-19T15:59:16;3.40;;;1.80;;
57335;SDS011;43171;50.994;18.204;2023-09-19T16:09:04;0.90;;;0.90;;
57335;SDS011;43171;50.994;18.204;2023-09-19T16:18:56;3.20;;;1.70;;
57335;SDS011;43171;50.994;18.204;2023-09-19T16:28:46;3.40;;;1.60;;
57335;SDS011;43171;50.994;18.204;2023-09-19T16:38:42;2.00;;;1.50;;
57335;SDS011;43171;50.994;18.204;2023-09-19T16:48:29;1.50;;;0.90;;
57335;SDS011;43171;50.994;18.204;2023-09-19T16:58:15;1.00;;;1.00;;
57335;SDS011;43171;50.994;18.204;2023-09-19T17:08:04;0.90;;;0.70;;
57335;SDS011;43171;50.994;18.204;2023-09-19T17:17:50;1.20;;;1.10;;
57335;SDS011;43171;50.994;18.204;2023-09-19T17:27:34;4.80;;;1.30;;
57335;SDS011;43171;50.994;18.204;2023-09-19T17:37:17;4.40;;;3.80;;
57335;SDS011;43171;50.994;18.204;2023-09-19T17:47:03;17.10;;;6.90;;
57335;SDS011;43171;50.994;18.204;2023-09-19T17:56:48;11.70;;;7.80;;
57335;SDS011;43171;50.994;18.204;2023-09-19T18:06:33;23.20;;;13.00;;
57335;SDS011;43171;50.994;18.204;2023-09-19T18:16:20;3.50;;;2.80;;
57335;SDS011;43171;50.994;18.204;2023-09-19T18:26:22;12.10;;;5.60;;
57335;SDS011;43171;50.994;18.204;2023-09-19T18:36:06;5.70;;;3.80;;
57335;SDS011;43171;50.994;18.204;2023-09-19T18:45:56;6.40;;;3.80;;
57335;SDS011;43171;50.994;18.204;2023-09-19T18:55:42;3.70;;;2.80;;
57335;SDS011;43171;50.994;18.204;2023-09-19T19:05:24;6.60;;;3.80;;
57335;SDS011;43171;50.994;18.204;2023-09-19T19:15:07;6.80;;;3.50;;
57335;SDS011;43171;50.994;18.204;2023-09-19T19:24:50;4.30;;;3.40;;
57335;SDS011;43171;50.994;18.204;2023-09-19T19:34:34;2.10;;;1.10;;
57335;SDS011;43171;50.994;18.204;2023-09-19T19:44:17;7.10;;;3.90;;
57335;SDS011;43171;50.994;18.204;2023-09-19T19:54:03;7.50;;;4.30;;
57335;SDS011;43171;50.994;18.204;2023-09-19T20:03:50;6.50;;;5.00;;
57335;SDS011;43171;50.994;18.204;2023-09-19T20:13:34;3.80;;;3.50;;
57335;SDS011;43171;50.994;18.204;2023-09-19T20:23:19;6.70;;;4.80;;
57335;SDS011;43171;50.994;18.204;2023-09-19T20:33:10;6.80;;;6.00;;
57335;SDS011;43171;50.994;18.204;2023-09-19T20:42:56;9.90;;;6.00;;
57335;SDS011;43171;50.994;18.204;2023-09-19T20:52:42;14.70;;;5.70;;
57335;SDS011;43171;50.994;18.204;2023-09-19T21:02:29;4.90;;;3.70;;
57335;SDS011;43171;50.994;18.204;2023-09-19T21:12:12;5.10;;;4.60;;
57335;SDS011;43171;50.994;18.204;2023-09-19T21:22:04;5.50;;;5.00;;
57335;SDS011;43171;50.994;18.204;2023-09-19T21:26:59;9.20;;;6.90;;
57335;SDS011;43171;50.994;18.204;2023-09-19T21:36:49;5.50;;;4.50;;
57335;SDS011;43171;50.994;18.204;2023-09-19T21:46:34;11.60;;;5.10;;
57335;SDS011;43171;50.994;18.204;2023-09-19T21:56:22;9.90;;;6.10;;
57335;SDS011;43171;50.994;18.204;2023-09-19T22:06:12;10.40;;;4.70;;
57335;SDS011;43171;50.994;18.204;2023-09-19T22:16:07;8.00;;;5.00;;
57335;SDS011;43171;50.994;18.204;2023-09-19T22:26:01;9.00;;;5.90;;
57335;SDS011;43171;50.994;18.204;2023-09-19T22:36:05;9.90;;;6.00;;
57335;SDS011;43171;50.994;18.204;2023-09-19T22:46:02;13.90;;;6.70;;
57335;SDS011;43171;50.994;18.204;2023-09-19T22:56:01;15.40;;;7.90;;
57335;SDS011;43171;50.994;18.204;2023-09-19T23:06:17;10.20;;;7.30;;
57335;SDS011;43171;50.994;18.204;2023-09-19T23:16:15;7.00;;;6.00;;
57335;SDS011;43171;50.994;18.204;2023-09-19T23:26:13;11.90;;;5.90;;
57335;SDS011;43171;50.994;18.204;2023-09-19T23:36:03;7.10;;;5.70;;
57335;SDS011;43171;50.994;18.204;2023-09-19T23:46:00;12.20;;;6.60;;
57335;SDS011;43171;50.994;18.204;2023-09-19T23:55:48;9.40;;;6.00;;
